EBOS Airport Information

Runway Information
Runway 08 Length 10499 ft width 148 ft
Elevation 15 ft Threshold 985 ft Heading 77
Runway 26 Length 10499 ft Width 148 ft
Elevation 13 ft Threshold 1362 ft Heading 257
Runway 14 Length 2057 ft width 148 ft
Elevation 13 ft Threshold 0 ft Heading 137
Runway 32 Length 2057 ft Width 148 ft
Elevation 13 ft Threshold 0 ft Heading 317
Airport Frequencies
Type APP Name APP Frequency 120.6 MHZ
Type ATIS Name ATIS Frequency 126.12 MHZ
Type GND Name GND Frequency 121.975 MHZ
Type TWR Name TWR Frequency 118.175 MHZ
Airport Navaids
Type NDB Name Oostende Frequency 400 KHZ
Airport Weather Information & NOTAM
ADDS - METARS form results

(2055 UTC 22 February 2018)
 
METAR text: EBOS 222020Z 06013KT CAVOK 01/M04 Q1022 NOSIG
Conditions at: EBOS (OOSTENDE AIRPORT, BE) observed 2020 UTC 22 February 2018
Temperature: 1.0°C (34°F)
Dewpoint: -4.0°C (25°F) [RH = 69%]
Pressure (altimeter): 30.18 inches Hg (1022.0 mb)
Winds: from the ENE (60 degrees) at 15 MPH (13 knots; 6.8 m/s)
Visibility: 6 or more miles (10+ km)
Ceiling: ceiling and visibility are OK
Clouds: unknown
Weather: no significant weather observed at this time